Time;durP1;ratioP1;P1;durP2;ratioP2;P2;SDS_P1;SDS_P2;PMS_P1;PMS_P2;Temp;Humidity;BMP_temperature;BMP_pressure;BME280_temperature;BME280_humidity;BME280_pressure;Samples;Min_cycle;Max_cycle;Signal;HPM_P1;HPM_P2
2021/12/15 00:01:06;;;;;;;0.20;0.20;;;;;;;19.80;43.76;102543.50;5118844;27;20042;-38
2021/12/15 00:03:33;;;;;;;0.20;0.20;;;;;;;19.80;43.82;102546.25;5111341;27;20047;-37
2021/12/15 00:05:59;;;;;;;0.20;0.20;;;;;;;19.79;43.93;102539.91;5142507;27;20045;-37
2021/12/15 00:08:25;;;;;;;0.20;0.20;;;;;;;19.79;43.69;102541.84;5120160;27;20482;-37
2021/12/15 00:10:51;;;;;;;0.20;0.20;;;;;;;19.79;43.52;102536.31;5140313;27;20043;-37
2021/12/15 00:13:18;;;;;;;0.20;0.20;;;;;;;19.80;43.58;102541.56;5138979;27;20054;-38
2021/12/15 00:15:45;;;;;;;0.10;0.10;;;;;;;19.78;43.78;102542.94;5140684;27;20046;-37
2021/12/15 00:18:11;;;;;;;0.20;0.20;;;;;;;19.79;43.82;102542.66;5134795;27;20049;-37
2021/12/15 00:20:37;;;;;;;0.20;0.20;;;;;;;19.79;43.85;102537.13;5106403;28;20043;-37
2021/12/15 00:23:04;;;;;;;0.20;0.20;;;;;;;19.79;43.67;102533.53;5126926;27;20039;-41
2021/12/15 00:25:33;;;;;;;0.20;0.20;;;;;;;19.79;43.69;102547.34;5105795;27;20413;-37
2021/12/15 00:27:59;;;;;;;0.20;0.20;;;;;;;19.79;43.94;102545.44;5109108;28;20389;-37
2021/12/15 00:30:25;;;;;;;0.20;0.20;;;;;;;19.79;43.75;102539.06;5125934;27;20095;-37
2021/12/15 00:32:52;;;;;;;0.20;0.20;;;;;;;19.79;43.86;102547.34;5132327;27;20047;-38
2021/12/15 00:35:18;;;;;;;0.20;0.20;;;;;;;19.78;43.54;102538.22;5107311;27;20363;-38
2021/12/15 00:37:43;;;;;;;0.20;0.20;;;;;;;19.78;43.97;102538.22;5128376;27;20047;-35
2021/12/15 00:40:12;;;;;;;0.20;0.20;;;;;;;19.78;43.61;102542.94;5107496;28;20077;-36
2021/12/15 00:42:38;;;;;;;0.20;0.20;;;;;;;19.79;43.79;102550.13;5131294;27;20047;-37
2021/12/15 00:45:05;;;;;;;0.20;0.20;;;;;;;19.78;43.66;102546.53;5108868;27;20270;-35
2021/12/15 00:47:31;;;;;;;0.20;0.20;;;;;;;19.78;43.89;102549.28;5105791;27;20055;-37
2021/12/15 00:49:57;;;;;;;0.20;0.20;;;;;;;19.76;43.81;102548.69;5105039;27;20378;-36
2021/12/15 00:52:23;;;;;;;0.20;0.20;;;;;;;19.78;43.66;102545.69;5127829;27;20045;-37
2021/12/15 00:54:48;;;;;;;0.20;0.20;;;;;;;19.77;43.76;102542.09;5101775;27;20069;-37
2021/12/15 00:57:14;;;;;;;0.20;0.20;;;;;;;19.77;43.87;102543.97;5110566;27;20397;-38
2021/12/15 00:59:40;;;;;;;0.20;0.20;;;;;;;19.77;43.98;102550.38;5126566;27;20043;-36
2021/12/15 01:02:07;;;;;;;0.20;0.20;;;;;;;19.77;43.89;102549.50;5127558;27;20047;-36
2021/12/15 01:04:34;;;;;;;0.20;0.20;;;;;;;19.77;43.79;102550.38;5105614;27;20080;-38
2021/12/15 01:07:04;;;;;;;0.20;0.20;;;;;;;19.77;43.86;102543.97;5108999;27;20044;-37
2021/12/15 01:09:34;;;;;;;0.20;0.20;;;;;;;19.78;44.00;102552.06;5127115;27;20039;-38
2021/12/15 01:20:21;;;;;;;;;;;;;;;19.77;43.75;102553.16;5131261;27;20042;-39
2021/12/15 01:22:50;;;;;;;0.20;0.20;;;;;;;19.76;43.88;102556.97;5142061;27;20280;-36
2021/12/15 01:25:20;;;;;;;0.20;0.20;;;;;;;19.76;43.94;102554.22;5138511;27;20034;-37
2021/12/15 01:27:46;;;;;;;0.20;0.20;;;;;;;19.75;43.77;102547.00;5135348;27;20047;-36
2021/12/15 01:30:15;;;;;;;0.20;0.20;;;;;;;19.76;43.78;102547.84;5144403;27;20046;-39
2021/12/15 01:32:42;;;;;;;0.20;0.20;;;;;;;19.76;43.94;102548.69;5160033;27;20055;-35
2021/12/15 01:35:09;;;;;;;0.20;0.20;;;;;;;19.76;43.65;102558.91;5156598;27;20071;-38
2021/12/15 01:37:35;;;;;;;0.20;0.20;;;;;;;19.77;43.79;102560.56;5144660;27;20050;-39
2021/12/15 01:40:02;;;;;;;0.20;0.20;;;;;;;19.76;43.88;102559.72;5159938;27;20105;-40
2021/12/15 01:42:31;;;;;;;0.20;0.20;;;;;;;19.76;43.71;102558.91;5143115;27;20047;-38
2021/12/15 01:47:43;;;;;;;0.20;0.20;;;;;;;19.75;43.86;102560.81;5147031;27;20102;-38
2021/12/15 01:50:09;;;;;;;0.20;0.20;;;;;;;19.76;43.69;102561.66;5142401;27;20277;-38
2021/12/15 01:52:37;;;;;;;0.20;0.20;;;;;;;19.76;43.72;102553.38;5139922;27;20062;-38
2021/12/15 01:55:10;;;;;;;0.20;0.20;;;;;;;19.75;43.83;102560.81;5139971;27;20441;-38
2021/12/15 01:57:36;;;;;;;0.20;0.20;;;;;;;19.74;43.96;102559.16;5160677;27;20041;-38
2021/12/15 02:00:09;;;;;;;0.20;0.20;;;;;;;19.75;43.65;102562.75;5161583;27;20059;-39
2021/12/15 02:02:35;;;;;;;0.20;0.20;;;;;;;19.75;43.77;102557.22;5159821;27;20051;-38
2021/12/15 02:05:01;;;;;;;0.20;0.20;;;;;;;19.75;43.97;102554.47;5140042;27;20035;-38
2021/12/15 02:07:27;;;;;;;0.20;0.20;;;;;;;19.75;43.98;102563.59;5141286;27;20058;-37
2021/12/15 02:12:26;;;;;;;0.20;0.20;;;;;;;19.75;43.93;102549.78;5126568;27;20038;-39
2021/12/15 02:14:52;;;;;;;0.20;0.20;;;;;;;19.75;44.02;102560.81;5138317;27;20450;-38
2021/12/15 02:17:19;;;;;;;0.20;0.20;;;;;;;19.75;43.94;102558.06;5161074;27;20064;-38
2021/12/15 02:19:44;;;;;;;0.20;0.20;;;;;;;19.76;43.81;102556.13;5149516;27;20045;-38
2021/12/15 02:22:10;;;;;;;0.20;0.20;;;;;;;19.75;43.95;102555.31;5150890;27;20039;-38
2021/12/15 02:24:37;;;;;;;0.20;0.20;;;;;;;19.75;43.68;102560.81;5124343;27;21041;-37
2021/12/15 02:27:04;;;;;;;0.20;0.20;;;;;;;19.74;43.96;102559.16;5105099;27;20094;-37
2021/12/15 02:29:34;;;;;;;0.20;0.20;;;;;;;19.75;43.63;102558.06;5121857;27;20054;-37
2021/12/15 02:32:47;;;;;;;0.20;0.20;;;;;;;19.76;43.99;102556.97;5140803;27;20058;-37
2021/12/15 02:37:31;;;;;;;0.20;0.20;;;;;;;19.74;43.99;102561.91;5122103;27;20408;-37
2021/12/15 02:40:01;;;;;;;0.20;0.20;;;;;;;19.75;43.81;102571.88;5134535;27;20043;-38
2021/12/15 02:42:30;;;;;;;0.20;0.20;;;;;;;19.74;43.79;102559.16;5140435;27;20524;-38
2021/12/15 02:44:56;;;;;;;0.20;0.20;;;;;;;19.74;43.92;102561.91;5116643;27;20083;-38
2021/12/15 02:47:25;;;;;;;0.20;0.20;;;;;;;19.75;43.71;102563.59;5115168;27;20046;-37
2021/12/15 02:49:53;;;;;;;0.20;0.20;;;;;;;19.74;43.69;102556.41;5117856;27;20045;-38
2021/12/15 02:52:19;;;;;;;0.20;0.20;;;;;;;19.74;43.91;102558.31;5136422;27;20039;-37
2021/12/15 02:54:45;;;;;;;0.20;0.20;;;;;;;19.75;43.76;102560.81;5134962;27;20049;-37
2021/12/15 02:57:12;;;;;;;0.20;0.20;;;;;;;19.75;43.83;102555.31;5122503;27;20062;-37
2021/12/15 02:59:56;;;;;;;0.20;0.20;;;;;;;19.75;43.83;102557.22;5140534;27;20465;-37
2021/12/15 03:05:21;;;;;;;0.20;0.20;;;;;;;19.75;43.97;102560.00;5106939;27;20043;-36
2021/12/15 03:08:02;;;;;;;0.10;0.10;;;;;;;19.74;43.78;102561.09;5143230;27;20055;-37
2021/12/15 03:16:00;;;;;;;0.10;0.10;;;;;;;19.74;43.79;102556.41;5120589;27;20051;-38
2021/12/15 03:18:28;;;;;;;0.20;0.20;;;;;;;19.74;43.81;102566.63;5136590;27;20051;-36
2021/12/15 03:20:59;;;;;;;0.20;0.20;;;;;;;19.74;43.74;102558.31;5139197;27;20438;-37
2021/12/15 03:26:10;;;;;;;0.20;0.20;;;;;;;19.74;43.77;102555.56;5172178;27;20206;-35
2021/12/15 03:39:24;;;;;;;0.20;0.20;;;;;;;19.74;43.71;102561.09;5132186;27;20408;-37
2021/12/15 03:41:56;;;;;;;;;;;;;;;19.73;43.75;102565.78;5147742;27;20043;-37
2021/12/15 03:44:22;;;;;;;0.20;0.20;;;;;;;19.73;44.12;102567.66;5133159;27;19963;-37
2021/12/15 03:46:48;;;;;;;0.20;0.20;;;;;;;19.74;44.04;102563.84;5147331;27;20325;-36
2021/12/15 03:49:13;;;;;;;0.20;0.20;;;;;;;19.73;43.92;102565.78;5143994;27;20429;-35
2021/12/15 03:51:39;;;;;;;0.20;0.20;;;;;;;19.73;43.86;102571.31;5148882;27;20047;-38
2021/12/15 03:54:05;;;;;;;0.20;0.20;;;;;;;19.73;43.96;102564.91;5140330;27;20043;-36
2021/12/15 03:56:31;;;;;;;0.20;0.20;;;;;;;19.73;44.21;102562.16;5133531;27;20512;-36
2021/12/15 03:58:57;;;;;;;0.20;0.20;;;;;;;19.73;43.92;102565.78;5144578;27;20067;-37
2021/12/15 04:01:24;;;;;;;0.20;0.20;;;;;;;19.75;43.80;102568.28;5151875;27;20038;-38
2021/12/15 04:03:54;;;;;;;0.20;0.20;;;;;;;19.74;43.74;102575.75;5127562;27;20304;-37
2021/12/15 04:06:27;;;;;;;0.20;0.20;;;;;;;19.74;43.95;102577.66;5146861;27;20589;-37
2021/12/15 04:08:53;;;;;;;0.20;0.20;;;;;;;19.72;43.76;102580.66;5126272;27;20038;-36
2021/12/15 04:11:21;;;;;;;0.20;0.20;;;;;;;19.73;44.08;102574.06;5150017;27;20049;-36
2021/12/15 04:13:48;;;;;;;0.20;0.20;;;;;;;19.73;44.08;102574.06;5146167;27;20043;-37
2021/12/15 04:16:40;;;;;;;0.20;0.20;;;;;;;19.75;43.96;102582.09;5147331;27;20087;-37
2021/12/15 04:19:05;;;;;;;0.20;0.20;;;;;;;19.73;43.97;102578.72;5117703;27;20776;-37
2021/12/15 04:21:31;;;;;;;0.20;0.20;;;;;;;19.72;43.91;102572.38;5127877;27;20300;-38
2021/12/15 04:23:58;;;;;;;0.20;0.20;;;;;;;19.74;44.03;102583.19;5122599;27;20043;-36
2021/12/15 04:26:24;;;;;;;0.20;0.20;;;;;;;19.74;44.06;102574.91;5136523;27;20296;-38
2021/12/15 04:28:50;;;;;;;0.20;0.20;;;;;;;19.73;43.69;102574.06;5105795;27;20054;-38
2021/12/15 04:31:20;;;;;;;0.20;0.20;;;;;;;19.73;44.11;102576.84;5128674;27;20133;-37
2021/12/15 04:33:54;;;;;;;0.17;0.17;;;;;;;19.73;43.74;102576.84;5091096;27;20405;-37
2021/12/15 04:36:23;;;;;;;0.20;0.20;;;;;;;19.72;43.80;102580.66;5128363;27;20052;-38
2021/12/15 04:38:49;;;;;;;0.20;0.20;;;;;;;19.74;43.95;102575.75;5109450;27;20554;-37
2021/12/15 04:41:18;;;;;;;0.20;0.20;;;;;;;19.73;44.09;102579.59;5099531;27;20482;-36
2021/12/15 04:44:10;;;;;;;0.20;0.20;;;;;;;19.74;44.00;102574.91;5109500;27;20444;-37
2021/12/15 04:46:39;;;;;;;0.20;0.20;;;;;;;19.73;43.82;102584.25;5107886;28;20138;-37
2021/12/15 04:49:07;;;;;;;0.20;0.20;;;;;;;19.73;43.97;102582.38;5094045;28;20486;-37
2021/12/15 04:51:33;;;;;;;0.20;0.20;;;;;;;19.75;43.88;102587.63;5114010;28;20061;-37
2021/12/15 04:53:59;;;;;;;0.20;0.20;;;;;;;19.74;43.94;102583.19;5110344;28;20052;-37
2021/12/15 04:56:25;;;;;;;0.20;0.20;;;;;;;19.73;44.09;102589.78;5115927;28;20096;-36
2021/12/15 04:58:53;;;;;;;0.20;0.20;;;;;;;19.73;44.01;102590.66;5109409;28;20045;-37
2021/12/15 05:01:20;;;;;;;0.20;0.20;;;;;;;19.73;43.89;102589.78;5112439;28;20047;-37
2021/12/15 05:03:46;;;;;;;0.20;0.20;;;;;;;19.73;43.97;102585.13;5108447;28;20153;-37
2021/12/15 05:06:12;;;;;;;0.20;0.20;;;;;;;19.73;43.84;102582.38;5096070;28;20057;-37
2021/12/15 05:08:39;;;;;;;0.20;0.20;;;;;;;19.73;44.11;102585.13;5111335;28;20048;-37
2021/12/15 05:11:06;;;;;;;0.20;0.20;;;;;;;19.73;44.04;102587.03;5095860;28;20047;-36
2021/12/15 05:13:34;;;;;;;0.10;0.10;;;;;;;19.72;43.80;102597.25;5112502;28;20051;-37
2021/12/15 05:16:00;;;;;;;0.20;0.20;;;;;;;19.73;43.80;102593.41;5112814;28;20043;-39
2021/12/15 05:18:27;;;;;;;;;;;;;;;19.72;43.94;102588.94;5097125;28;20067;-38
2021/12/15 05:20:54;;;;;;;0.20;0.20;;;;;;;19.73;43.96;102592.56;5112855;28;20266;-38
2021/12/15 05:23:21;;;;;;;0.20;0.20;;;;;;;19.73;43.84;102596.19;5113207;28;21100;-39
2021/12/15 05:25:48;;;;;;;0.20;0.20;;;;;;;19.72;43.83;102600.00;5097731;28;20053;-37
2021/12/15 05:28:14;;;;;;;0.20;0.20;;;;;;;19.72;43.91;102602.78;5095064;28;20044;-37
2021/12/15 05:30:40;;;;;;;0.20;0.20;;;;;;;19.73;44.17;102600.84;5095099;28;20097;-37
2021/12/15 05:33:07;;;;;;;0.20;0.20;;;;;;;19.73;44.03;102598.94;5111584;28;20063;-36
2021/12/15 05:35:34;;;;;;;0.20;0.20;;;;;;;19.73;43.95;102604.47;5076923;28;20080;-36
2021/12/15 05:38:00;;;;;;;0.20;0.20;;;;;;;19.74;43.91;102602.56;5111114;28;20451;-36
2021/12/15 05:40:28;;;;;;;0.20;0.20;;;;;;;19.73;43.98;102607.25;5111232;28;20040;-36
2021/12/15 05:42:57;;;;;;;0.10;0.10;;;;;;;19.72;44.06;102600.00;5095347;28;20036;-37
2021/12/15 05:45:24;;;;;;;0.20;0.20;;;;;;;19.73;43.93;102600.84;5107840;28;20059;-36
2021/12/15 05:47:50;;;;;;;0.20;0.20;;;;;;;19.73;44.14;102596.19;5098627;28;20045;-37
2021/12/15 05:50:16;;;;;;;0.10;0.10;;;;;;;19.74;43.92;102603.38;5110209;28;20035;-36
2021/12/15 05:52:42;;;;;;;0.20;0.20;;;;;;;19.74;44.07;102608.06;5098860;28;20036;-38
2021/12/15 05:55:10;;;;;;;0.20;0.20;;;;;;;19.73;43.83;102609.13;5111963;28;20066;-37
2021/12/15 05:57:36;;;;;;;0.20;0.20;;;;;;;19.73;43.84;102609.13;5116147;27;20096;-37
2021/12/15 06:00:06;;;;;;;0.20;0.20;;;;;;;19.73;44.15;102607.25;5113507;28;20043;-37
2021/12/15 06:02:31;;;;;;;0.20;0.20;;;;;;;19.72;44.23;102605.53;5111077;28;20104;-39
2021/12/15 06:04:57;;;;;;;0.20;0.20;;;;;;;19.72;44.00;102608.31;5108257;28;20210;-37
2021/12/15 06:07:23;;;;;;;0.20;0.20;;;;;;;19.73;43.97;102615.53;5109567;28;20438;-38
2021/12/15 06:09:48;;;;;;;0.20;0.20;;;;;;;19.73;44.17;102614.66;5112261;28;20083;-38
2021/12/15 06:12:14;;;;;;;0.20;0.20;;;;;;;19.73;44.03;102618.28;5114839;28;20051;-36
2021/12/15 06:14:42;;;;;;;0.20;0.20;;;;;;;19.73;44.00;102621.06;5109410;28;20481;-41
2021/12/15 06:17:10;;;;;;;0.10;0.10;;;;;;;19.74;44.16;102619.13;5105217;28;20044;-36
2021/12/15 06:19:35;;;;;;;0.20;0.20;;;;;;;19.72;43.96;102624.06;5085418;28;20047;-37
2021/12/15 06:22:02;;;;;;;0.20;0.20;;;;;;;19.74;43.88;102625.50;5107059;28;20085;-36
2021/12/15 06:24:28;;;;;;;0.20;0.20;;;;;;;19.74;44.00;102621.91;5092964;28;20061;-36
2021/12/15 06:26:57;;;;;;;0.20;0.20;;;;;;;19.74;43.89;102608.91;5106895;28;20039;-38
2021/12/15 06:29:23;;;;;;;0.20;0.20;;;;;;;19.73;44.13;102621.06;5092036;28;20035;-36
2021/12/15 06:31:48;;;;;;;0.20;0.20;;;;;;;19.74;44.01;102635.72;5095714;28;20249;-38
2021/12/15 06:34:15;;;;;;;0.20;0.20;;;;;;;19.82;44.26;102623.41;5109223;28;20042;-38
2021/12/15 06:36:41;;;;;;;0.20;0.20;;;;;;;19.85;43.92;102617.41;5098194;28;20057;-41
2021/12/15 06:39:13;;;;;;;0.20;0.20;;;;;;;19.87;44.08;102634.63;5099176;28;20485;-40
2021/12/15 06:41:38;;;;;;;0.20;0.20;;;;;;;19.83;44.27;102633.41;5096231;28;20094;-41
2021/12/15 06:44:04;;;;;;;0.20;0.20;;;;;;;19.81;44.34;102633.63;5090282;28;20047;-38
2021/12/15 06:57:35;;;;;;;0.17;0.17;;;;;;;19.83;44.25;102627.88;5077748;28;20048;-40
2021/12/15 07:00:06;;;;;;;0.15;0.15;;;;;;;19.84;44.15;102633.16;5096945;28;20100;-37
2021/12/15 07:02:32;;;;;;;0.10;0.10;;;;;;;19.85;43.96;102639.53;5082319;28;20043;-37
2021/12/15 07:04:58;;;;;;;0.10;0.10;;;;;;;19.86;44.24;102638.44;5079058;28;20134;-35
2021/12/15 07:07:24;;;;;;;0.17;0.17;;;;;;;19.86;43.97;102635.66;5095237;28;20186;-37
2021/12/15 07:09:50;;;;;;;0.20;0.20;;;;;;;19.87;44.21;102642.91;5087194;28;20044;-39
2021/12/15 07:12:16;;;;;;;0.20;0.20;;;;;;;19.89;43.80;102646.25;5093615;28;20035;-37
2021/12/15 07:14:41;;;;;;;0.10;0.10;;;;;;;19.89;44.12;102643.50;5094990;28;20296;-37
2021/12/15 07:17:14;;;;;;;0.20;0.20;;;;;;;20.00;44.05;102651.75;5086768;28;20036;-41
2021/12/15 07:20:04;;;;;;;0.20;0.20;;;;;;;20.05;44.73;102651.03;5089801;28;20050;-44
2021/12/15 07:22:32;;;;;;;0.20;0.20;;;;;;;20.20;44.23;102656.84;5062944;28;20048;-45
2021/12/15 07:25:00;;;;;;;0.20;0.20;;;;;;;20.40;44.43;102656.41;5077757;28;20047;-41
2021/12/15 07:27:25;;;;;;;0.10;0.10;;;;;;;20.44;44.55;102663.16;5096633;28;20103;-42
2021/12/15 07:29:51;;;;;;;0.20;0.20;;;;;;;20.42;44.32;102662.56;5101274;28;20048;-40
2021/12/15 07:32:17;;;;;;;0.10;0.10;;;;;;;20.38;44.67;102666.91;5082456;28;20047;-41
2021/12/15 07:34:43;;;;;;;0.20;0.20;;;;;;;20.36;44.28;102666.31;5097529;28;20043;-38
2021/12/15 07:37:09;;;;;;;0.20;0.20;;;;;;;20.34;44.39;102662.13;5069472;28;20767;-41
2021/12/15 07:39:37;;;;;;;0.20;0.20;;;;;;;20.34;44.44;102670.41;5076676;28;20327;-42
2021/12/15 07:42:10;;;;;;;0.10;0.10;;;;;;;20.33;44.31;102668.72;5099256;28;20398;-39
2021/12/15 07:44:36;;;;;;;0.20;0.20;;;;;;;20.33;44.19;102677.03;5093174;28;20044;-37
2021/12/15 07:47:02;;;;;;;0.20;0.20;;;;;;;20.32;44.33;102681.72;5092609;28;20050;-39
2021/12/15 07:49:29;;;;;;;0.20;0.20;;;;;;;20.32;44.43;102678.13;5061470;28;20055;-40
2021/12/15 07:52:01;;;;;;;0.20;0.20;;;;;;;20.34;44.15;102673.19;5094150;28;20044;-42
2021/12/15 07:54:30;;;;;;;0.20;0.20;;;;;;;20.34;44.20;102685.09;5093174;28;20386;-39
2021/12/15 07:56:55;;;;;;;0.20;0.20;;;;;;;20.35;44.06;102680.41;5079576;28;20047;-36
2021/12/15 07:59:21;;;;;;;0.20;0.20;;;;;;;20.35;44.19;102689.53;5089995;28;20457;-40
2021/12/15 08:01:47;;;;;;;0.20;0.20;;;;;;;20.35;44.39;102688.69;5095516;28;20085;-40
2021/12/15 08:04:16;;;;;;;0.20;0.20;;;;;;;20.37;44.08;102686.50;5085867;28;21187;-43
2021/12/15 08:06:41;;;;;;;0.20;0.20;;;;;;;20.38;43.79;102682.66;5088150;28;21943;-42
2021/12/15 08:09:07;;;;;;;0.20;0.20;;;;;;;20.38;43.99;102691.81;5090066;28;20073;-43
2021/12/15 08:11:33;;;;;;;0.20;0.20;;;;;;;20.39;43.93;102687.97;5096560;28;20488;-41
2021/12/15 08:13:58;;;;;;;0.20;0.20;;;;;;;20.40;43.86;102686.03;5096087;28;20047;-40
2021/12/15 08:16:25;;;;;;;0.20;0.20;;;;;;;20.40;43.82;102686.84;5093329;28;20101;-41
2021/12/15 08:18:51;;;;;;;0.20;0.20;;;;;;;20.41;44.13;102685.75;5085970;28;20470;-42
2021/12/15 08:21:17;;;;;;;0.20;0.20;;;;;;;20.40;43.80;102686.84;5102349;28;20043;-40
2021/12/15 08:23:42;;;;;;;0.20;0.20;;;;;;;20.41;44.12;102690.47;5103669;28;20048;-40
2021/12/15 08:26:08;;;;;;;0.10;0.10;;;;;;;20.42;43.84;102689.38;5083048;28;20117;-38
2021/12/15 08:28:34;;;;;;;0.10;0.10;;;;;;;20.43;44.04;102691.06;5079120;28;20232;-42
2021/12/15 08:31:00;;;;;;;0.10;0.10;;;;;;;20.42;43.56;102686.59;5088041;28;20039;-43
2021/12/15 08:33:26;;;;;;;0.20;0.20;;;;;;;20.43;43.83;102688.31;5085828;28;20308;-41
2021/12/15 08:35:57;;;;;;;0.20;0.20;;;;;;;20.43;43.91;102696.63;5087631;28;20316;-41
2021/12/15 08:38:25;;;;;;;0.20;0.20;;;;;;;20.43;43.79;102700.22;5103996;28;20044;-43
2021/12/15 08:40:51;;;;;;;0.20;0.20;;;;;;;20.47;44.88;102700.56;5102382;28;20040;-40
2021/12/15 08:43:18;;;;;;;0.20;0.20;;;;;;;20.59;44.43;102701.34;5077495;28;20047;-45
2021/12/15 08:45:49;;;;;;;0.20;0.20;;;;;;;20.61;44.40;102698.38;5086471;28;20056;-42
2021/12/15 08:48:15;;;;;;;0.20;0.20;;;;;;;20.65;44.17;102707.84;5080805;28;21615;-42
2021/12/15 08:50:43;;;;;;;0.20;0.20;;;;;;;20.66;44.20;102709.53;5076025;28;20058;-40
2021/12/15 08:53:11;;;;;;;0.17;0.17;;;;;;;20.67;44.00;102698.19;5088576;28;20043;-40
2021/12/15 08:55:40;;;;;;;0.10;0.10;;;;;;;20.68;44.19;102713.75;5075442;28;20145;-41
2021/12/15 08:58:07;;;;;;;0.20;0.20;;;;;;;20.67;43.95;102711.22;5087265;28;20078;-42
2021/12/15 09:00:33;;;;;;;0.20;0.20;;;;;;;20.66;44.24;102706.75;5074484;28;20527;-41
2021/12/15 09:02:59;;;;;;;0.20;0.20;;;;;;;20.67;43.88;102722.28;5075660;28;20148;-41
2021/12/15 09:05:25;;;;;;;0.10;0.10;;;;;;;20.67;43.81;102713.97;5097978;28;20101;-40
2021/12/15 09:07:54;;;;;;;0.20;0.20;;;;;;;20.67;44.03;102716.75;5082918;28;20047;-43
2021/12/15 09:10:22;;;;;;;0.20;0.20;;;;;;;20.68;43.95;102704.56;5077977;28;20054;-41
2021/12/15 09:12:48;;;;;;;0.20;0.20;;;;;;;20.67;44.00;102714.81;5097501;28;20054;-42
2021/12/15 09:15:14;;;;;;;0.20;0.20;;;;;;;20.68;43.83;102712.88;5096356;28;20044;-41
2021/12/15 09:17:40;;;;;;;0.20;0.20;;;;;;;20.69;44.06;102720.13;5096934;28;20039;-43
2021/12/15 09:20:08;;;;;;;0.20;0.20;;;;;;;20.74;44.20;102714.66;5073151;28;20055;-40
2021/12/15 09:22:34;;;;;;;0.10;0.10;;;;;;;20.86;44.39;102717.38;5090958;28;20407;-41
2021/12/15 09:25:00;;;;;;;0.20;0.20;;;;;;;20.92;44.61;102720.00;5091773;28;20071;-40
2021/12/15 09:27:26;;;;;;;0.10;0.10;;;;;;;20.93;44.68;102720.81;5093851;28;20448;-43
2021/12/15 09:29:51;;;;;;;0.10;0.10;;;;;;;20.87;44.61;102722.66;5099868;28;20039;-40
2021/12/15 09:32:17;;;;;;;0.20;0.20;;;;;;;20.93;44.25;102724.44;5099999;27;20040;-37
2021/12/15 09:34:43;;;;;;;0.10;0.10;;;;;;;20.96;44.07;102731.41;5076729;28;20391;-40
2021/12/15 09:37:08;;;;;;;0.10;0.10;;;;;;;20.95;44.11;102725.03;5091841;28;20298;-39
2021/12/15 09:39:35;;;;;;;0.10;0.10;;;;;;;20.94;44.11;102728.91;5069289;28;20040;-42
2021/12/15 09:42:23;;;;;;;0.10;0.10;;;;;;;20.86;44.11;102734.00;5079815;28;20059;-43
2021/12/15 09:44:52;;;;;;;0.10;0.10;;;;;;;20.95;43.93;102732.50;5087651;28;20056;-37
2021/12/15 09:47:37;;;;;;;0.10;0.10;;;;;;;20.98;43.90;102735.63;5094646;28;20441;-40
2021/12/15 10:04:31;;;;;;;0.10;0.10;;;;;;;20.96;43.77;102737.78;5073144;28;20468;-37
2021/12/15 10:17:55;;;;;;;0.10;0.10;;;;;;;20.95;43.52;102732.50;5105873;27;20095;-37
2021/12/15 10:20:25;;;;;;;0.10;0.10;;;;;;;20.97;43.43;102744.16;5129521;27;20049;-39
2021/12/15 10:22:57;;;;;;;0.17;0.17;;;;;;;20.97;43.64;102733.09;5125348;27;20046;-37
2021/12/15 10:25:32;;;;;;;0.10;0.10;;;;;;;20.96;43.48;102735.00;5110328;27;20057;-36
2021/12/15 10:28:03;;;;;;;0.20;0.20;;;;;;;20.96;43.31;102736.94;5106251;27;20050;-37
2021/12/15 10:30:40;;;;;;;0.10;0.10;;;;;;;20.96;43.56;102732.25;5128337;27;20047;-38
2021/12/15 10:33:10;;;;;;;0.20;0.20;;;;;;;20.97;43.57;102730.31;5131221;27;20220;-38
2021/12/15 10:35:43;;;;;;;0.20;0.20;;;;;;;20.98;43.42;102724.53;5107717;27;20043;-39
2021/12/15 10:38:29;;;;;;;0.20;0.20;;;;;;;20.98;43.34;102731.97;5109115;27;20391;-36
2021/12/15 10:41:14;;;;;;;0.20;0.20;;;;;;;20.96;43.43;102732.25;5099699;27;20178;-38
2021/12/15 10:44:01;;;;;;;0.20;0.20;;;;;;;20.96;43.31;102737.78;5129544;27;20046;-35
2021/12/15 10:46:50;;;;;;;0.10;0.10;;;;;;;20.96;43.23;102736.94;5113236;27;20042;-39
2021/12/15 10:49:21;;;;;;;0.20;0.20;;;;;;;20.96;43.19;102740.56;5116896;27;20117;-37
2021/12/15 10:51:59;;;;;;;0.10;0.10;;;;;;;20.95;43.23;102738.88;5117399;27;20047;-39
2021/12/15 10:54:29;;;;;;;0.10;0.10;;;;;;;20.95;43.24;102729.75;5101966;27;20047;-36
2021/12/15 10:57:13;;;;;;;0.10;0.10;;;;;;;20.94;43.20;102733.56;5106858;27;20433;-41
2021/12/15 10:59:41;;;;;;;0.20;0.20;;;;;;;20.93;43.06;102740.22;5109775;27;20114;-36
2021/12/15 11:02:29;;;;;;;;;;;;;;;20.92;43.24;102727.47;5099519;27;20042;-37
2021/12/15 11:05:05;;;;;;;0.10;0.10;;;;;;;20.92;43.17;102735.75;5102818;27;19923;-41
2021/12/15 11:07:42;;;;;;;0.20;0.20;;;;;;;20.75;42.90;102733.78;5089577;27;20291;-44
2021/12/15 11:10:14;;;;;;;0.20;0.20;;;;;;;20.83;43.01;102731.72;5119625;27;20553;-44
2021/12/15 11:12:48;;;;;;;0.20;0.20;;;;;;;20.94;43.88;102725.25;5115075;27;20114;-40
2021/12/15 11:15:40;;;;;;;0.20;0.20;;;;;;;20.99;43.65;102730.91;5129957;27;20051;-37
2021/12/15 11:20:59;;;;;;;0.10;0.10;;;;;;;21.00;43.59;102727.88;5155425;27;20491;-42
2021/12/15 11:23:27;;;;;;;0.20;0.20;;;;;;;21.01;43.28;102739.81;5131129;27;20377;-38
2021/12/15 11:26:02;;;;;;;0.10;0.10;;;;;;;21.01;43.27;102740.66;5126146;27;20049;-38
2021/12/15 11:28:30;;;;;;;0.13;0.13;;;;;;;21.00;43.40;102741.75;5127863;27;20047;-38
2021/12/15 11:31:04;;;;;;;0.10;0.10;;;;;;;21.02;43.40;102738.72;5117512;27;20038;-37
2021/12/15 11:33:37;;;;;;;0.10;0.10;;;;;;;21.01;43.17;102734.25;5128783;27;20087;-38
2021/12/15 11:36:10;;;;;;;0.10;0.10;;;;;;;21.01;43.30;102731.50;5122270;27;20046;-41
2021/12/15 11:38:39;;;;;;;0.20;0.20;;;;;;;21.01;43.20;102725.97;5148463;27;20046;-42
2021/12/15 11:41:11;;;;;;;0.20;0.20;;;;;;;21.01;43.24;102712.94;5123668;27;20047;-36
2021/12/15 11:43:41;;;;;;;0.10;0.10;;;;;;;21.03;43.16;102721.84;5116803;27;20536;-38
2021/12/15 11:46:27;;;;;;;0.10;0.10;;;;;;;21.03;43.39;102710.78;5125166;27;20195;-40
2021/12/15 11:48:58;;;;;;;0.10;0.10;;;;;;;21.02;43.08;102714.63;5130526;27;20077;-43
2021/12/15 11:51:29;;;;;;;0.20;0.20;;;;;;;21.02;42.98;102719.31;5136770;27;20292;-39
2021/12/15 11:53:55;;;;;;;0.10;0.10;;;;;;;21.07;43.52;102718.56;5131262;27;20098;-41
2021/12/15 11:56:26;;;;;;;0.10;0.10;;;;;;;21.09;43.28;102719.16;5119558;27;20264;-41
2021/12/15 11:58:56;;;;;;;0.10;0.10;;;;;;;21.11;43.42;102716.97;5134250;27;20066;-41
2021/12/15 12:01:59;;;;;;;0.20;0.20;;;;;;;21.13;43.31;102718.41;5134194;27;20512;-38
2021/12/15 12:04:44;;;;;;;0.20;0.20;;;;;;;21.15;43.27;102719.00;5153343;27;20054;-39
2021/12/15 12:10:11;;;;;;;0.20;0.20;;;;;;;21.09;43.92;102720.00;5145861;27;20356;-37
2021/12/15 12:12:47;;;;;;;0.10;0.10;;;;;;;21.14;43.52;102711.78;5145549;27;20045;-39
2021/12/15 12:15:14;;;;;;;0.10;0.10;;;;;;;21.14;43.69;102709.00;5127734;27;20055;-39
2021/12/15 12:17:43;;;;;;;0.10;0.10;;;;;;;21.14;43.54;102717.31;5129907;27;20039;-38
2021/12/15 12:20:12;;;;;;;0.20;0.20;;;;;;;21.16;43.71;102708.78;5123103;27;20043;-35
2021/12/15 12:22:39;;;;;;;0.20;0.20;;;;;;;21.18;43.73;102712.97;5126634;27;20050;-38
2021/12/15 12:25:10;;;;;;;0.20;0.20;;;;;;;21.18;43.57;102701.88;5129518;27;20047;-37
2021/12/15 12:27:36;;;;;;;0.10;0.10;;;;;;;21.17;43.54;102718.75;5123876;27;20050;-37
2021/12/15 12:30:09;;;;;;;0.10;0.10;;;;;;;21.18;43.43;102710.19;5129953;27;20055;-36
2021/12/15 12:32:36;;;;;;;0.10;0.10;;;;;;;21.18;43.51;102712.13;5126741;27;20065;-37
2021/12/15 12:35:04;;;;;;;0.20;0.20;;;;;;;21.17;43.30;102713.22;5126034;27;20055;-38
2021/12/15 12:37:30;;;;;;;;;;;;;;;21.12;43.81;102702.91;5125683;27;20047;-39
2021/12/15 12:39:59;;;;;;;0.10;0.10;;;;;;;21.17;43.42;102694.66;5128376;27;20082;-36
2021/12/15 12:42:31;;;;;;;0.20;0.20;;;;;;;21.19;43.50;102700.78;5134066;27;20062;-37
2021/12/15 12:45:22;;;;;;;0.20;0.20;;;;;;;21.19;43.36;102700.78;5128507;27;20053;-38
2021/12/15 12:48:14;;;;;;;0.10;0.10;;;;;;;21.19;43.37;102695.22;5125795;27;20047;-37
2021/12/15 12:59:29;;;;;;;0.10;0.10;;;;;;;21.19;43.06;102695.22;5116124;27;20814;-37
2021/12/15 13:01:57;;;;;;;0.20;0.20;;;;;;;21.21;43.25;102695.00;5131059;27;20057;-39
2021/12/15 13:04:38;;;;;;;0.10;0.10;;;;;;;21.22;43.10;102696.69;5128403;27;20068;-37